Time;durP1;ratioP1;P1;durP2;ratioP2;P2;SDS_P1;SDS_P2;PMS_P1;PMS_P2;Temp;Humidity;BMP_temperature;BMP_pressure;BME280_temperature;BME280_humidity;BME280_pressure;Samples;Min_cycle;Max_cycle;Signal;HPM_P1;HPM_P2
2023/06/12 00:02:07;;;;;;;9.53;5.00;;;;;;;;;;5071417;28;20051;-60
2023/06/12 00:04:33;;;;;;;6.57;4.80;;;;;;;;;;5071550;28;20041;-60
2023/06/12 00:06:59;;;;;;;9.07;4.53;;;;;;;;;;5071174;28;20093;-60
2023/06/12 00:09:26;;;;;;;21.47;5.27;;;;;;;;;;5070856;28;20044;-60
2023/06/12 00:11:52;;;;;;;9.10;4.93;;;;;;;;;;5070783;28;20076;-60
2023/06/12 00:14:18;;;;;;;7.63;4.67;;;;;;;;;;5071020;28;20044;-60
2023/06/12 00:16:44;;;;;;;9.43;5.17;;;;;;;;;;5070965;28;20040;-60
2023/06/12 00:19:11;;;;;;;8.13;4.70;;;;;;;;;;5070724;28;20044;-60
2023/06/12 00:21:38;;;;;;;8.50;4.73;;;;;;;;;;5071016;28;20051;-60
2023/06/12 00:24:08;;;;;;;11.77;4.87;;;;;;;;;;5070888;28;20036;-60
2023/06/12 00:26:35;;;;;;;8.80;4.33;;;;;;;;;;5070574;28;20109;-60
2023/06/12 00:29:01;;;;;;;7.13;4.40;;;;;;;;;;5071039;28;20114;-60
2023/06/12 00:31:27;;;;;;;6.83;3.80;;;;;;;;;;5070897;28;20045;-60
2023/06/12 00:33:53;;;;;;;8.27;4.07;;;;;;;;;;5070680;28;20521;-59
2023/06/12 00:36:19;;;;;;;7.40;4.47;;;;;;;;;;5070306;28;20076;-60
2023/06/12 00:38:45;;;;;;;6.33;3.63;;;;;;;;;;5070575;28;20497;-60
2023/06/12 00:41:11;;;;;;;8.67;4.10;;;;;;;;;;5069643;28;20135;-60
2023/06/12 00:43:37;;;;;;;8.80;3.80;;;;;;;;;;5069870;28;20044;-60
2023/06/12 00:46:04;;;;;;;5.60;3.67;;;;;;;;;;5070564;28;20094;-60
2023/06/12 00:48:30;;;;;;;7.70;3.70;;;;;;;;;;5070163;28;20048;-60
2023/06/12 00:50:57;;;;;;;10.50;3.73;;;;;;;;;;5070138;28;20490;-60
2023/06/12 00:53:24;;;;;;;6.50;3.87;;;;;;;;;;5070219;28;20629;-60
2023/06/12 00:55:50;;;;;;;10.37;4.33;;;;;;;;;;5070691;28;20135;-60
2023/06/12 00:58:16;;;;;;;8.63;3.77;;;;;;;;;;5069738;28;20063;-60
2023/06/12 01:00:43;;;;;;;6.23;3.73;;;;;;;;;;5070507;28;20076;-60
2023/06/12 01:03:10;;;;;;;9.33;3.97;;;;;;;;;;5070212;28;20057;-60
2023/06/12 01:05:38;;;;;;;6.70;3.47;;;;;;;;;;5070577;28;20052;-60
2023/06/12 01:08:04;;;;;;;7.47;3.90;;;;;;;;;;5070341;28;20163;-60
2023/06/12 01:10:33;;;;;;;7.80;4.00;;;;;;;;;;5070486;28;20048;-60
2023/06/12 01:13:00;;;;;;;7.77;3.93;;;;;;;;;;5069061;28;20123;-60
2023/06/12 01:15:26;;;;;;;12.53;4.00;;;;;;;;;;5069979;28;20048;-60
2023/06/12 01:17:52;;;;;;;7.13;3.27;;;;;;;;;;5069915;28;20044;-60
2023/06/12 01:20:19;;;;;;;10.73;3.70;;;;;;;;;;5070271;28;20443;-60
2023/06/12 01:22:51;;;;;;;6.40;3.17;;;;;;;;;;5069525;28;20102;-60
2023/06/12 01:25:20;;;;;;;8.07;4.03;;;;;;;;;;5070262;28;20056;-60
2023/06/12 01:28:05;;;;;;;7.73;3.63;;;;;;;;;;5069994;28;20051;-60
2023/06/12 01:30:54;;;;;;;5.43;3.03;;;;;;;;;;5069876;28;20053;-60
2023/06/12 01:33:21;;;;;;;8.67;3.57;;;;;;;;;;5068846;28;20056;-60
2023/06/12 01:35:49;;;;;;;10.00;3.50;;;;;;;;;;5069179;28;20040;-60
2023/06/12 01:38:20;;;;;;;8.90;3.90;;;;;;;;;;5069452;28;20113;-60
2023/06/12 01:40:47;;;;;;;8.73;3.80;;;;;;;;;;5068420;28;20133;-60
2023/06/12 01:43:13;;;;;;;10.00;3.53;;;;;;;;;;5069330;28;20044;-60
2023/06/12 01:45:40;;;;;;;10.40;3.90;;;;;;;;;;5068104;28;20048;-60
2023/06/12 01:48:06;;;;;;;8.93;4.13;;;;;;;;;;5068056;28;20051;-60
2023/06/12 01:50:32;;;;;;;6.97;3.37;;;;;;;;;;5068717;28;20053;-60
2023/06/12 01:52:58;;;;;;;9.33;3.20;;;;;;;;;;5069347;28;20146;-60
2023/06/12 01:55:24;;;;;;;7.90;3.70;;;;;;;;;;5069568;28;20673;-60
2023/06/12 01:57:50;;;;;;;7.73;3.70;;;;;;;;;;5069344;28;20132;-60
2023/06/12 02:00:17;;;;;;;10.00;3.30;;;;;;;;;;5068483;28;20114;-60
2023/06/12 02:02:43;;;;;;;9.47;3.37;;;;;;;;;;5069273;28;20044;-60
2023/06/12 02:05:10;;;;;;;6.60;3.07;;;;;;;;;;5069259;28;20047;-60
2023/06/12 02:07:36;;;;;;;7.70;3.10;;;;;;;;;;5068843;28;20414;-60
2023/06/12 02:10:02;;;;;;;7.60;3.40;;;;;;;;;;5068558;28;20053;-60
2023/06/12 02:12:29;;;;;;;8.83;4.00;;;;;;;;;;5069104;28;20046;-60
2023/06/12 02:14:57;;;;;;;10.50;3.80;;;;;;;;;;5068143;28;20041;-60
2023/06/12 02:17:23;;;;;;;6.53;3.50;;;;;;;;;;5068650;28;20048;-60
2023/06/12 02:19:49;;;;;;;13.23;3.90;;;;;;;;;;5068805;28;20056;-60
2023/06/12 02:22:15;;;;;;;10.73;3.90;;;;;;;;;;5068279;28;20041;-60
2023/06/12 02:24:41;;;;;;;7.30;3.20;;;;;;;;;;5068162;28;20048;-60
2023/06/12 02:27:07;;;;;;;7.80;3.63;;;;;;;;;;5067927;28;20041;-60
2023/06/12 02:29:34;;;;;;;7.90;3.53;;;;;;;;;;5066688;28;20057;-60
2023/06/12 02:32:00;;;;;;;6.93;2.80;;;;;;;;;;5067251;28;20052;-60
2023/06/12 02:34:26;;;;;;;12.33;3.47;;;;;;;;;;5067738;28;20055;-60
2023/06/12 02:36:52;;;;;;;12.93;3.70;;;;;;;;;;5068043;28;20045;-60
2023/06/12 02:39:18;;;;;;;9.00;3.27;;;;;;;;;;5068563;28;20122;-60
2023/06/12 02:41:45;;;;;;;6.80;2.97;;;;;;;;;;5068234;28;20093;-60
2023/06/12 02:44:12;;;;;;;8.07;3.17;;;;;;;;;;5068551;28;20135;-60
2023/06/12 02:46:57;;;;;;;6.00;2.97;;;;;;;;;;5066611;28;20100;-60
2023/06/12 02:49:24;;;;;;;7.07;3.20;;;;;;;;;;5068090;28;20542;-60
2023/06/12 02:51:50;;;;;;;7.63;3.50;;;;;;;;;;5068528;28;20079;-60
2023/06/12 02:54:17;;;;;;;13.07;4.10;;;;;;;;;;5050449;28;20056;-61
2023/06/12 02:56:46;;;;;;;12.73;3.60;;;;;;;;;;5068273;28;20067;-60
2023/06/12 02:59:16;;;;;;;6.27;3.57;;;;;;;;;;5068288;28;20044;-60
2023/06/12 03:01:45;;;;;;;6.70;2.90;;;;;;;;;;5066641;28;20050;-60
2023/06/12 03:04:12;;;;;;;7.07;3.57;;;;;;;;;;5068284;28;20040;-59
2023/06/12 03:06:39;;;;;;;7.23;3.73;;;;;;;;;;5068730;28;20397;-60
2023/06/12 03:09:08;;;;;;;5.73;3.13;;;;;;;;;;5068428;28;20094;-59
2023/06/12 03:11:35;;;;;;;8.20;4.20;;;;;;;;;;5067750;28;20076;-60
2023/06/12 03:14:01;;;;;;;10.97;3.70;;;;;;;;;;5068226;28;20088;-59
2023/06/12 03:16:27;;;;;;;8.67;3.90;;;;;;;;;;5067673;28;20102;-59
2023/06/12 03:18:53;;;;;;;7.53;3.70;;;;;;;;;;5067433;28;20091;-59
2023/06/12 03:21:19;;;;;;;7.73;4.07;;;;;;;;;;5067642;28;20406;-59
2023/06/12 03:23:46;;;;;;;8.30;3.30;;;;;;;;;;5067245;28;20517;-60
2023/06/12 03:26:12;;;;;;;8.57;4.30;;;;;;;;;;5067796;28;20053;-59
2023/06/12 03:28:38;;;;;;;9.10;3.80;;;;;;;;;;5068151;28;20057;-59
2023/06/12 03:31:04;;;;;;;10.53;4.63;;;;;;;;;;5067529;28;20045;-60
2023/06/12 03:33:30;;;;;;;5.00;3.43;;;;;;;;;;5067226;28;20091;-59
2023/06/12 03:35:56;;;;;;;10.10;3.90;;;;;;;;;;5067597;28;20512;-59
2023/06/12 03:38:22;;;;;;;12.30;4.07;;;;;;;;;;5067756;28;20906;-59
2023/06/12 03:40:48;;;;;;;7.20;3.90;;;;;;;;;;5067764;28;20124;-59
2023/06/12 03:43:14;;;;;;;7.53;3.67;;;;;;;;;;5066501;28;20478;-59
2023/06/12 03:45:40;;;;;;;6.83;3.80;;;;;;;;;;5067381;28;20045;-59
2023/06/12 03:48:06;;;;;;;9.67;3.80;;;;;;;;;;5067363;28;20045;-59
2023/06/12 03:50:32;;;;;;;7.13;3.60;;;;;;;;;;5067690;28;20102;-59
2023/06/12 03:52:58;;;;;;;7.87;3.90;;;;;;;;;;5067623;28;20040;-60
2023/06/12 03:55:24;;;;;;;7.00;3.80;;;;;;;;;;5049654;28;20086;-60
2023/06/12 03:57:50;;;;;;;9.00;3.63;;;;;;;;;;5066830;28;20059;-60
2023/06/12 04:00:17;;;;;;;7.53;3.97;;;;;;;;;;5067584;28;20502;-61
2023/06/12 04:02:43;;;;;;;9.23;4.37;;;;;;;;;;5067448;28;20049;-60
2023/06/12 04:05:10;;;;;;;9.90;3.80;;;;;;;;;;5067059;28;20048;-60
2023/06/12 04:07:39;;;;;;;7.40;3.60;;;;;;;;;;5067672;28;20087;-60
2023/06/12 04:10:07;;;;;;;10.33;4.33;;;;;;;;;;5067344;28;20056;-59
2023/06/12 04:12:33;;;;;;;10.97;4.80;;;;;;;;;;5067640;28;20088;-59
2023/06/12 04:14:59;;;;;;;6.77;3.83;;;;;;;;;;5069910;28;20048;-60
2023/06/12 04:17:25;;;;;;;9.47;4.00;;;;;;;;;;5070667;28;20051;-60
2023/06/12 04:19:52;;;;;;;8.67;4.30;;;;;;;;;;5069979;28;20382;-60
2023/06/12 04:22:19;;;;;;;7.70;3.90;;;;;;;;;;5070340;28;20091;-60
2023/06/12 04:24:45;;;;;;;8.47;4.33;;;;;;;;;;5071016;28;20050;-60
2023/06/12 04:27:11;;;;;;;9.47;4.03;;;;;;;;;;5070771;28;20051;-60
2023/06/12 04:29:38;;;;;;;8.50;3.87;;;;;;;;;;5070600;28;20059;-60
2023/06/12 04:32:06;;;;;;;7.90;4.37;;;;;;;;;;5070357;28;20430;-60
2023/06/12 04:34:39;;;;;;;7.80;4.47;;;;;;;;;;5070495;28;20060;-60
2023/06/12 04:37:11;;;;;;;6.70;3.78;;;;;;;;;;5070822;28;20072;-60
2023/06/12 04:39:38;;;;;;;8.23;3.83;;;;;;;;;;5070612;28;20048;-61
2023/06/12 04:42:05;;;;;;;10.33;3.83;;;;;;;;;;5070331;28;20056;-61
2023/06/12 04:44:34;;;;;;;8.67;4.20;;;;;;;;;;5069682;28;20117;-60
2023/06/12 04:47:02;;;;;;;8.77;4.47;;;;;;;;;;5070324;28;20048;-60
2023/06/12 04:49:29;;;;;;;9.80;4.13;;;;;;;;;;5070661;28;20076;-60
2023/06/12 04:51:56;;;;;;;9.70;4.33;;;;;;;;;;5069955;28;20049;-60
2023/06/12 04:54:22;;;;;;;6.87;3.87;;;;;;;;;;5069682;28;20056;-60
2023/06/12 04:56:50;;;;;;;8.63;4.73;;;;;;;;;;5070636;28;20048;-60
2023/06/12 04:59:16;;;;;;;8.60;4.70;;;;;;;;;;5070062;28;20049;-62
2023/06/12 05:01:44;;;;;;;11.03;4.53;;;;;;;;;;5070159;28;20561;-60
2023/06/12 05:04:11;;;;;;;8.07;4.70;;;;;;;;;;5070395;28;20056;-60
2023/06/12 05:06:39;;;;;;;12.20;4.80;;;;;;;;;;5069849;28;20045;-60
2023/06/12 05:09:08;;;;;;;11.30;4.27;;;;;;;;;;5070285;28;20075;-60
2023/06/12 05:11:34;;;;;;;8.73;4.43;;;;;;;;;;5070227;28;20522;-61
2023/06/12 05:14:00;;;;;;;7.20;4.50;;;;;;;;;;5069096;28;20481;-60
2023/06/12 05:16:28;;;;;;;26.27;4.33;;;;;;;;;;5069772;28;20080;-61
2023/06/12 05:18:54;;;;;;;9.27;4.83;;;;;;;;;;5069884;28;20071;-60
2023/06/12 05:21:20;;;;;;;8.77;4.00;;;;;;;;;;5069341;28;20058;-60
2023/06/12 05:23:48;;;;;;;7.03;4.23;;;;;;;;;;5069873;28;20464;-60
2023/06/12 05:26:14;;;;;;;7.90;4.97;;;;;;;;;;5068367;28;20048;-61
2023/06/12 05:28:40;;;;;;;14.57;4.67;;;;;;;;;;5067913;28;20094;-61
2023/06/12 05:31:06;;;;;;;6.43;4.13;;;;;;;;;;5069951;28;20044;-61
2023/06/12 05:33:32;;;;;;;11.10;4.40;;;;;;;;;;5069114;28;20098;-60
2023/06/12 05:35:59;;;;;;;11.27;5.03;;;;;;;;;;5068722;28;20430;-60
2023/06/12 05:38:25;;;;;;;12.90;4.23;;;;;;;;;;5060959;28;20491;-60
2023/06/12 05:40:52;;;;;;;13.70;4.57;;;;;;;;;;5063609;28;20056;-60
2023/06/12 05:43:18;;;;;;;6.43;3.53;;;;;;;;;;5069148;28;20060;-61
2023/06/12 05:45:44;;;;;;;10.80;4.00;;;;;;;;;;5069101;28;20113;-61
2023/06/12 05:48:10;;;;;;;11.30;4.43;;;;;;;;;;5069283;28;20487;-61
2023/06/12 05:50:36;;;;;;;8.47;4.10;;;;;;;;;;5067801;28;20044;-60
2023/06/12 05:53:02;;;;;;;14.10;4.83;;;;;;;;;;5047924;28;20041;-63
2023/06/12 05:55:28;;;;;;;7.37;4.03;;;;;;;;;;5056970;28;20793;-62
2023/06/12 05:57:54;;;;;;;11.30;4.23;;;;;;;;;;5067843;28;20182;-61
2023/06/12 06:00:21;;;;;;;13.27;4.30;;;;;;;;;;5068853;28;20585;-61
2023/06/12 06:02:47;;;;;;;13.93;4.73;;;;;;;;;;5068306;28;20132;-61
2023/06/12 06:05:13;;;;;;;10.63;4.40;;;;;;;;;;5060319;28;20045;-61
2023/06/12 06:07:40;;;;;;;12.07;4.50;;;;;;;;;;5068022;28;20431;-61
2023/06/12 06:10:07;;;;;;;8.40;3.80;;;;;;;;;;5056318;28;20171;-61
2023/06/12 06:12:33;;;;;;;11.10;3.87;;;;;;;;;;5048443;28;20075;-61
2023/06/12 06:14:59;;;;;;;8.70;4.40;;;;;;;;;;5059930;28;20048;-61
2023/06/12 06:17:25;;;;;;;9.07;3.90;;;;;;;;;;5067669;28;20097;-61
2023/06/12 06:19:51;;;;;;;6.93;3.77;;;;;;;;;;5067058;28;20418;-61
2023/06/12 06:22:18;;;;;;;9.63;3.83;;;;;;;;;;5066785;28;20504;-61
2023/06/12 06:24:44;;;;;;;11.53;4.10;;;;;;;;;;5066477;28;20048;-61
2023/06/12 06:27:10;;;;;;;8.80;4.73;;;;;;;;;;5067983;28;20486;-61
2023/06/12 06:29:36;;;;;;;7.27;4.03;;;;;;;;;;5067747;28;20483;-62
2023/06/12 06:32:03;;;;;;;14.00;4.43;;;;;;;;;;5068341;28;20106;-62
2023/06/12 06:34:29;;;;;;;15.83;4.23;;;;;;;;;;5068585;28;20139;-62
2023/06/12 06:36:56;;;;;;;14.57;4.40;;;;;;;;;;5051245;28;20049;-61
2023/06/12 06:39:22;;;;;;;13.00;4.57;;;;;;;;;;5058661;28;20067;-62
2023/06/12 06:41:48;;;;;;;11.63;4.30;;;;;;;;;;5067600;28;20052;-62
2023/06/12 06:44:14;;;;;;;9.77;3.90;;;;;;;;;;5067169;28;20113;-61
2023/06/12 06:46:40;;;;;;;15.60;5.17;;;;;;;;;;5055215;28;20052;-62
2023/06/12 06:49:06;;;;;;;8.40;4.00;;;;;;;;;;5048394;28;20399;-61
2023/06/12 06:51:32;;;;;;;14.87;4.20;;;;;;;;;;5067075;28;20036;-61
2023/06/12 06:53:58;;;;;;;8.67;3.70;;;;;;;;;;5067756;28;20052;-61
2023/06/12 06:56:24;;;;;;;10.27;3.90;;;;;;;;;;5067552;28;20045;-61
2023/06/12 06:58:50;;;;;;;13.30;4.43;;;;;;;;;;5068171;28;20109;-61
2023/06/12 07:01:17;;;;;;;10.67;4.17;;;;;;;;;;5068261;28;20041;-61
2023/06/12 07:03:43;;;;;;;8.37;3.93;;;;;;;;;;5067222;28;20071;-61
2023/06/12 07:06:09;;;;;;;12.83;4.33;;;;;;;;;;5066599;28;20048;-61
2023/06/12 07:08:35;;;;;;;11.20;3.87;;;;;;;;;;5065442;28;20509;-62
2023/06/12 07:11:01;;;;;;;6.90;3.53;;;;;;;;;;5049199;28;20415;-61
2023/06/12 07:13:27;;;;;;;7.63;3.90;;;;;;;;;;5060171;28;20682;-61
2023/06/12 07:15:53;;;;;;;8.13;4.13;;;;;;;;;;5064405;28;20444;-61
2023/06/12 07:18:19;;;;;;;9.80;4.07;;;;;;;;;;5068269;28;20067;-62
2023/06/12 07:20:45;;;;;;;8.77;4.20;;;;;;;;;;5066734;28;20136;-61
2023/06/12 07:23:11;;;;;;;9.70;3.93;;;;;;;;;;5064851;28;20457;-61
2023/06/12 07:25:38;;;;;;;10.87;4.00;;;;;;;;;;5067813;28;20167;-62
2023/06/12 07:28:04;;;;;;;10.90;4.00;;;;;;;;;;5066947;28;20047;-61
2023/06/12 07:30:30;;;;;;;8.70;3.60;;;;;;;;;;5068075;28;20048;-62
2023/06/12 07:32:56;;;;;;;10.47;4.20;;;;;;;;;;5067799;28;20061;-62
2023/06/12 07:35:22;;;;;;;7.73;3.60;;;;;;;;;;5066959;28;20056;-62
2023/06/12 07:37:49;;;;;;;9.00;3.57;;;;;;;;;;5067365;28;20121;-62
2023/06/12 07:40:16;;;;;;;9.70;3.63;;;;;;;;;;5067716;28;20052;-62
2023/06/12 07:42:45;;;;;;;8.43;3.67;;;;;;;;;;5067436;28;20044;-62
2023/06/12 07:45:11;;;;;;;8.73;4.83;;;;;;;;;;5067328;28;20044;-61
2023/06/12 07:47:37;;;;;;;8.97;4.27;;;;;;;;;;5067965;28;20056;-62
2023/06/12 07:50:04;;;;;;;13.17;3.70;;;;;;;;;;5071153;28;20564;-62
2023/06/12 07:52:30;;;;;;;12.83;4.20;;;;;;;;;;5071362;28;20506;-62
2023/06/12 07:54:57;;;;;;;9.77;3.83;;;;;;;;;;5071360;28;20044;-62
2023/06/12 07:57:23;;;;;;;10.65;3.95;;;;;;;;;;5071189;28;20044;-62
2023/06/12 07:59:50;;;;;;;13.65;4.18;;;;;;;;;;5071161;28;20043;-63
2023/06/12 08:02:16;;;;;;;8.25;3.88;;;;;;;;;;5071086;28;20475;-63
2023/06/12 08:04:42;;;;;;;9.30;3.80;;;;;;;;;;5070613;28;20047;-63
2023/06/12 08:07:16;;;;;;;10.93;3.72;;;;;;;;;;5071159;28;20041;-63
2023/06/12 08:09:42;;;;;;;9.30;3.88;;;;;;;;;;5071173;28;20456;-63
2023/06/12 08:12:10;;;;;;;7.30;3.70;;;;;;;;;;5070867;28;20131;-62
2023/06/12 08:14:37;;;;;;;9.02;4.20;;;;;;;;;;5070585;28;20095;-63
2023/06/12 08:17:03;;;;;;;9.80;4.53;;;;;;;;;;5070367;28;20125;-62
2023/06/12 08:19:32;;;;;;;9.80;3.58;;;;;;;;;;5070993;28;20139;-63
2023/06/12 08:21:59;;;;;;;8.23;4.20;;;;;;;;;;5070593;28;20061;-62
2023/06/12 08:24:29;;;;;;;10.10;4.75;;;;;;;;;;5070836;28;20082;-63
2023/06/12 08:26:55;;;;;;;12.60;4.18;;;;;;;;;;5070121;28;20048;-63
2023/06/12 08:29:21;;;;;;;8.90;4.15;;;;;;;;;;5070494;28;20474;-63
2023/06/12 08:31:47;;;;;;;8.05;4.00;;;;;;;;;;5070322;28;20417;-63
2023/06/12 08:34:13;;;;;;;9.65;4.22;;;;;;;;;;5070595;28;20148;-63
2023/06/12 08:36:39;;;;;;;7.57;4.32;;;;;;;;;;5070292;28;20063;-63
2023/06/12 08:39:05;;;;;;;8.70;3.92;;;;;;;;;;5069948;28;20147;-63
2023/06/12 08:41:33;;;;;;;7.97;4.63;;;;;;;;;;5070594;28;20048;-63
2023/06/12 08:44:00;;;;;;;10.82;4.25;;;;;;;;;;5070266;28;20044;-63
2023/06/12 08:46:30;;;;;;;10.10;4.57;;;;;;;;;;5070259;28;20040;-63
2023/06/12 08:48:59;;;;;;;10.32;3.90;;;;;;;;;;5070149;28;20095;-63
2023/06/12 08:51:25;;;;;;;16.17;4.40;;;;;;;;;;5069849;28;20052;-63
2023/06/12 08:53:51;;;;;;;9.20;4.28;;;;;;;;;;5070291;28;20041;-63
2023/06/12 08:56:17;;;;;;;8.68;4.50;;;;;;;;;;5069855;28;20106;-63
2023/06/12 08:58:44;;;;;;;7.82;4.30;;;;;;;;;;5069646;28;20044;-63
2023/06/12 09:01:12;;;;;;;5.90;3.75;;;;;;;;;;5069315;28;20044;-63
2023/06/12 09:03:40;;;;;;;9.43;4.38;;;;;;;;;;5069954;28;20132;-63
2023/06/12 09:06:07;;;;;;;8.52;4.00;;;;;;;;;;5069410;28;20051;-63
2023/06/12 09:08:34;;;;;;;13.43;4.32;;;;;;;;;;5069966;28;20127;-63
2023/06/12 09:11:00;;;;;;;9.95;4.97;;;;;;;;;;5069840;28;20124;-63
2023/06/12 09:13:39;;;;;;;7.35;4.35;;;;;;;;;;5069803;28;20476;-63
2023/06/12 09:16:10;;;;;;;7.90;4.55;;;;;;;;;;5069054;28;20557;-63
2023/06/12 09:18:47;;;;;;;6.30;4.25;;;;;;;;;;5068102;28;20097;-63
2023/06/12 09:21:13;;;;;;;9.10;4.45;;;;;;;;;;5068460;28;20048;-63
2023/06/12 09:23:41;;;;;;;6.93;4.40;;;;;;;;;;5069769;28;20052;-63
2023/06/12 09:26:13;;;;;;;7.18;4.30;;;;;;;;;;5069754;28;20117;-63
2023/06/12 09:28:41;;;;;;;5.57;4.47;;;;;;;;;;5069712;28;20060;-63
2023/06/12 09:31:08;;;;;;;5.28;4.13;;;;;;;;;;5069500;28;20040;-63
2023/06/12 09:33:39;;;;;;;6.72;4.20;;;;;;;;;;5067812;28;20503;-63
2023/06/12 09:36:05;;;;;;;10.05;5.18;;;;;;;;;;5066774;28;20182;-63
2023/06/12 09:38:35;;;;;;;7.30;4.22;;;;;;;;;;5068641;28;20509;-63
2023/06/12 09:41:03;;;;;;;10.63;4.95;;;;;;;;;;5069377;28;20044;-63
2023/06/12 09:43:30;;;;;;;7.35;4.68;;;;;;;;;;5068419;28;20064;-63
2023/06/12 09:45:57;;;;;;;6.47;4.70;;;;;;;;;;5068093;28;20059;-63
2023/06/12 09:48:24;;;;;;;8.55;5.03;;;;;;;;;;5068214;28;20565;-64
2023/06/12 09:50:51;;;;;;;9.15;5.00;;;;;;;;;;5069316;28;20041;-63
2023/06/12 09:53:20;;;;;;;6.80;4.22;;;;;;;;;;5068880;28;20133;-63
2023/06/12 09:55:47;;;;;;;7.57;4.72;;;;;;;;;;5067891;28;20044;-64
2023/06/12 09:58:17;;;;;;;6.03;4.63;;;;;;;;;;5068522;28;20088;-63
2023/06/12 10:00:44;;;;;;;6.45;4.70;;;;;;;;;;5068970;28;20044;-63
2023/06/12 10:03:13;;;;;;;8.07;5.50;;;;;;;;;;5067925;28;20067;-64
2023/06/12 10:05:46;;;;;;;7.15;4.95;;;;;;;;;;5067943;28;20056;-63
2023/06/12 10:08:12;;;;;;;5.75;4.57;;;;;;;;;;5069087;28;20043;-64
2023/06/12 10:10:39;;;;;;;6.22;4.82;;;;;;;;;;5068592;28;20055;-63
2023/06/12 10:13:06;;;;;;;7.25;5.22;;;;;;;;;;5068494;28;20415;-63
2023/06/12 10:15:32;;;;;;;6.18;4.82;;;;;;;;;;5069108;28;20452;-63
2023/06/12 10:17:59;;;;;;;9.13;4.70;;;;;;;;;;5068837;28;20044;-63
2023/06/12 10:20:26;;;;;;;5.72;4.63;;;;;;;;;;5068930;28;20044;-63
2023/06/12 10:22:52;;;;;;;7.55;5.22;;;;;;;;;;5066811;28;20040;-63
2023/06/12 10:25:18;;;;;;;7.18;5.15;;;;;;;;;;5048405;28;20051;-63
2023/06/12 10:27:45;;;;;;;7.00;5.07;;;;;;;;;;5048842;28;20143;-61
2023/06/12 10:30:12;;;;;;;5.75;4.47;;;;;;;;;;5066237;28;20108;-63
2023/06/12 10:32:39;;;;;;;5.20;4.07;;;;;;;;;;5067678;28;20101;-63
2023/06/12 10:35:06;;;;;;;4.53;4.10;;;;;;;;;;5067805;28;20428;-63
2023/06/12 10:37:33;;;;;;;7.20;3.67;;;;;;;;;;5068263;28;20418;-63
2023/06/12 10:40:02;;;;;;;5.05;4.55;;;;;;;;;;5067662;28;20052;-63
2023/06/12 10:42:41;;;;;;;5.90;4.10;;;;;;;;;;5067883;28;20055;-63
2023/06/12 10:45:24;;;;;;;4.80;4.30;;;;;;;;;;5067914;28;20045;-63
2023/06/12 10:48:05;;;;;;;6.75;5.03;;;;;;;;;;5067808;28;20048;-63
2023/06/12 10:50:50;;;;;;;7.97;4.35;;;;;;;;;;5067620;28;20043;-63
2023/06/12 10:53:21;;;;;;;8.80;4.82;;;;;;;;;;5068021;28;20463;-63
2023/06/12 10:55:47;;;;;;;5.72;4.43;;;;;;;;;;5065842;28;20502;-63
2023/06/12 10:58:14;;;;;;;6.38;4.68;;;;;;;;;;5067873;28;20044;-63
2023/06/12 11:00:44;;;;;;;6.82;4.97;;;;;;;;;;5067925;28;20117;-63
2023/06/12 11:03:16;;;;;;;8.13;5.35;;;;;;;;;;5068033;28;20052;-63
2023/06/12 11:05:46;;;;;;;6.10;5.20;;;;;;;;;;5067032;28;20090;-63
2023/06/12 11:08:13;;;;;;;6.47;4.93;;;;;;;;;;5067942;28;20524;-63
2023/06/12 11:10:39;;;;;;;8.77;4.95;;;;;;;;;;5067779;28;20576;-63
2023/06/12 11:13:05;;;;;;;5.47;4.88;;;;;;;;;;5067419;28;20414;-63
2023/06/12 11:15:47;;;;;;;6.40;4.70;;;;;;;;;;5065391;28;20109;-63
2023/06/12 11:18:14;;;;;;;7.43;5.43;;;;;;;;;;5067819;28;20495;-63
2023/06/12 11:20:40;;;;;;;7.55;4.95;;;;;;;;;;5067960;28;20131;-63
2023/06/12 11:23:06;;;;;;;6.43;5.28;;;;;;;;;;5068780;28;20076;-63
2023/06/12 11:25:42;;;;;;;5.53;4.85;;;;;;;;;;5070578;28;20048;-63
2023/06/12 11:28:08;;;;;;;7.80;5.30;;;;;;;;;;5071421;28;20036;-63
2023/06/12 11:30:34;;;;;;;9.38;6.00;;;;;;;;;;5070005;28;20482;-63
2023/06/12 11:33:07;;;;;;;5.80;5.18;;;;;;;;;;5069946;28;20048;-63
2023/06/12 11:35:38;;;;;;;7.78;5.63;;;;;;;;;;5065936;28;20822;-63
2023/06/12 11:38:05;;;;;;;5.82;5.00;;;;;;;;;;5063781;28;20047;-63
2023/06/12 11:40:31;;;;;;;6.07;4.78;;;;;;;;;;5059386;28;20495;-63
2023/06/12 11:42:57;;;;;;;8.38;5.50;;;;;;;;;;5063747;28;20053;-63
2023/06/12 11:45:23;;;;;;;5.43;4.93;;;;;;;;;;5070921;28;20136;-63
2023/06/12 11:47:50;;;;;;;6.15;5.65;;;;;;;;;;5060876;28;20045;-63
2023/06/12 11:50:18;;;;;;;8.40;5.07;;;;;;;;;;5050837;28;20155;-63
2023/06/12 11:52:45;;;;;;;8.80;5.20;;;;;;;;;;5051142;28;20064;-63
2023/06/12 11:55:12;;;;;;;7.25;5.30;;;;;;;;;;5070261;28;20142;-63
2023/06/12 11:57:38;;;;;;;7.70;5.53;;;;;;;;;;5055542;28;20059;-63
2023/06/12 12:00:14;;;;;;;5.68;5.18;;;;;;;;;;5067765;28;20041;-63
2023/06/12 12:02:41;;;;;;;5.40;4.55;;;;;;;;;;5052314;28;20502;-63
2023/06/12 12:05:09;;;;;;;7.10;4.15;;;;;;;;;;5060979;28;20413;-63
2023/06/12 12:07:39;;;;;;;7.63;4.82;;;;;;;;;;5067086;28;20045;-63
2023/06/12 12:10:06;;;;;;;4.93;4.43;;;;;;;;;;5051241;28;20060;-63
2023/06/12 12:12:45;;;;;;;7.68;4.70;;;;;;;;;;5067344;28;20222;-63
2023/06/12 12:15:12;;;;;;;6.90;4.88;;;;;;;;;;5064825;28;20541;-63
2023/06/12 12:17:39;;;;;;;4.82;4.38;;;;;;;;;;5070486;28;20041;-63
2023/06/12 12:20:08;;;;;;;4.53;4.10;;;;;;;;;;5069897;28;20055;-63
2023/06/12 12:22:38;;;;;;;4.95;4.28;;;;;;;;;;5068349;28;20052;-63
2023/06/12 12:25:05;;;;;;;5.78;4.18;;;;;;;;;;5068121;28;20127;-63
2023/06/12 12:27:31;;;;;;;4.65;3.97;;;;;;;;;;5070086;28;20097;-63
2023/06/12 12:29:57;;;;;;;7.05;3.90;;;;;;;;;;5070084;28;20503;-63
2023/06/12 12:32:23;;;;;;;5.07;4.07;;;;;;;;;;5064670;28;20053;-63
2023/06/12 12:34:49;;;;;;;4.28;3.83;;;;;;;;;;5061707;28;20135;-63
2023/06/12 12:37:15;;;;;;;5.50;4.28;;;;;;;;;;5068454;28;20052;-63
2023/06/12 12:39:41;;;;;;;4.93;4.18;;;;;;;;;;5070020;28;20040;-63
2023/06/12 12:42:07;;;;;;;4.45;4.05;;;;;;;;;;5067687;28;20040;-63
2023/06/12 12:44:34;;;;;;;5.15;3.97;;;;;;;;;;5068448;28;20040;-63
2023/06/12 12:47:00;;;;;;;5.65;3.90;;;;;;;;;;5070688;28;20052;-63
2023/06/12 12:49:26;;;;;;;4.15;3.75;;;;;;;;;;5068200;28;20053;-63
2023/06/12 12:51:52;;;;;;;5.72;4.03;;;;;;;;;;5064049;28;20039;-63
2023/06/12 12:54:18;;;;;;;6.43;4.25;;;;;;;;;;5064014;28;20045;-63
2023/06/12 12:56:45;;;;;;;6.65;4.40;;;;;;;;;;5058632;28;20141;-63
2023/06/12 12:59:11;;;;;;;6.55;3.90;;;;;;;;;;5063082;28;20048;-63
2023/06/12 13:01:37;;;;;;;5.40;4.22;;;;;;;;;;5069463;28;20048;-63
2023/06/12 13:04:03;;;;;;;4.97;3.90;;;;;;;;;;5052093;28;20407;-63
2023/06/12 13:06:29;;;;;;;6.32;4.20;;;;;;;;;;5052606;28;20040;-63
2023/06/12 13:08:55;;;;;;;6.35;3.92;;;;;;;;;;5068694;28;20490;-63
2023/06/12 13:11:21;;;;;;;5.65;4.18;;;;;;;;;;5069626;28;20063;-63
2023/06/12 13:13:47;;;;;;;10.43;4.20;;;;;;;;;;5055286;28;20496;-63
2023/06/12 13:16:14;;;;;;;5.53;3.45;;;;;;;;;;5068116;28;20052;-63
2023/06/12 13:18:40;;;;;;;4.07;3.65;;;;;;;;;;5066315;28;20044;-63
2023/06/12 13:21:06;;;;;;;5.03;4.38;;;;;;;;;;5060947;28;20143;-64
2023/06/12 13:23:32;;;;;;;5.75;3.60;;;;;;;;;;5066220;28;20041;-63
2023/06/12 13:25:58;;;;;;;5.43;4.00;;;;;;;;;;5056388;28;20041;-63
2023/06/12 13:28:24;;;;;;;4.05;3.63;;;;;;;;;;5056222;28;20430;-63
2023/06/12 13:30:50;;;;;;;5.00;4.00;;;;;;;;;;5068501;28;20129;-63
2023/06/12 13:33:16;;;;;;;5.40;3.65;;;;;;;;;;5069151;28;20052;-63
2023/06/12 13:35:43;;;;;;;5.28;4.20;;;;;;;;;;5069590;28;20417;-63
2023/06/12 13:38:09;;;;;;;4.43;3.60;;;;;;;;;;5068039;28;20087;-63
2023/06/12 13:40:35;;;;;;;6.38;3.97;;;;;;;;;;5068007;28;20051;-63
2023/06/12 13:43:01;;;;;;;4.20;3.80;;;;;;;;;;5069182;28;20048;-63
2023/06/12 13:45:28;;;;;;;5.28;3.97;;;;;;;;;;5068606;28;20444;-63
2023/06/12 13:47:54;;;;;;;5.35;4.18;;;;;;;;;;5069143;28;20054;-63
2023/06/12 13:50:20;;;;;;;6.40;4.93;;;;;;;;;;5069177;28;20119;-63
2023/06/12 13:52:46;;;;;;;9.77;5.97;;;;;;;;;;5067868;28;20131;-63
2023/06/12 13:55:12;;;;;;;5.38;4.32;;;;;;;;;;5068074;28;20553;-63
2023/06/12 13:57:39;;;;;;;10.10;4.80;;;;;;;;;;5068644;28;20065;-63
2023/06/12 14:00:06;;;;;;;5.80;4.95;;;;;;;;;;5062422;28;20048;-64
2023/06/12 14:02:32;;;;;;;5.30;4.47;;;;;;;;;;5069310;28;20041;-63
2023/06/12 14:04:59;;;;;;;5.45;4.95;;;;;;;;;;5060233;28;20102;-63
2023/06/12 14:07:25;;;;;;;6.50;5.00;;;;;;;;;;5065246;28;20140;-63
2023/06/12 14:09:52;;;;;;;8.73;5.10;;;;;;;;;;5069054;28;20158;-63
2023/06/12 14:12:18;;;;;;;5.55;4.95;;;;;;;;;;5068919;28;20048;-63
2023/06/12 14:14:46;;;;;;;9.05;5.30;;;;;;;;;;5062782;28;20040;-63
2023/06/12 14:17:13;;;;;;;6.80;4.95;;;;;;;;;;5060740;28;20848;-63
2023/06/12 14:19:39;;;;;;;7.93;5.00;;;;;;;;;;5068708;28;20056;-63
2023/06/12 14:22:05;;;;;;;6.40;5.30;;;;;;;;;;5068028;28;20059;-63
2023/06/12 14:24:31;;;;;;;5.40;4.90;;;;;;;;;;5069001;28;20085;-63
2023/06/12 14:26:57;;;;;;;7.47;5.28;;;;;;;;;;5068774;28;20171;-63
2023/06/12 14:29:23;;;;;;;5.38;4.88;;;;;;;;;;5067301;28;20090;-62
2023/06/12 14:31:49;;;;;;;6.57;4.78;;;;;;;;;;5068134;28;20078;-62
2023/06/12 14:34:15;;;;;;;7.38;5.75;;;;;;;;;;5068424;28;20550;-63
2023/06/12 14:36:41;;;;;;;6.97;4.97;;;;;;;;;;5067973;28;20426;-63
2023/06/12 14:39:07;;;;;;;5.43;4.93;;;;;;;;;;5068068;28;20093;-63
2023/06/12 14:41:33;;;;;;;7.10;5.10;;;;;;;;;;5068548;28;20174;-63